sensor_id;sensor_type;location;lat;lon;timestamp;temperature;humidity
37868;DHT22;24011;48.880;9.190;2023-02-07T07:10:53;24.00;36.20
37868;DHT22;24011;48.880;9.190;2023-02-07T07:22:46;24.00;36.50
37868;DHT22;24011;48.880;9.190;2023-02-07T07:56:40;24.10;36.90
37868;DHT22;24011;48.880;9.190;2023-02-07T07:59:28;24.00;37.00
37868;DHT22;24011;48.880;9.190;2023-02-07T08:02:18;24.10;37.10
37868;DHT22;24011;48.880;9.190;2023-02-07T08:05:22;24.10;37.00
37868;DHT22;24011;48.880;9.190;2023-02-07T08:08:22;24.20;37.60
37868;DHT22;24011;48.880;9.190;2023-02-07T08:11:10;24.20;37.00
37868;DHT22;24011;48.880;9.190;2023-02-07T08:13:58;24.10;37.00
37868;DHT22;24011;48.880;9.190;2023-02-07T08:16:34;24.20;37.10
37868;DHT22;24011;48.880;9.190;2023-02-07T08:19:03;24.20;37.80
37868;DHT22;24011;48.880;9.190;2023-02-07T08:21:32;24.20;37.10
37868;DHT22;24011;48.880;9.190;2023-02-07T08:24:00;24.20;37.10
37868;DHT22;24011;48.880;9.190;2023-02-07T08:26:29;24.20;37.10
37868;DHT22;24011;48.880;9.190;2023-02-07T08:29:00;24.20;37.20
37868;DHT22;24011;48.880;9.190;2023-02-07T08:31:29;24.20;37.20
37868;DHT22;24011;48.880;9.190;2023-02-07T08:33:58;24.20;37.20
37868;DHT22;24011;48.880;9.190;2023-02-07T08:36:27;24.20;37.30
37868;DHT22;24011;48.880;9.190;2023-02-07T08:38:56;24.20;37.30
37868;DHT22;24011;48.880;9.190;2023-02-07T08:41:25;24.10;37.30
37868;DHT22;24011;48.880;9.190;2023-02-07T08:43:54;24.20;37.50
37868;DHT22;24011;48.880;9.190;2023-02-07T08:46:25;24.10;37.60
37868;DHT22;24011;48.880;9.190;2023-02-07T08:48:56;24.10;37.50
37868;DHT22;24011;48.880;9.190;2023-02-07T08:51:26;24.10;37.50
37868;DHT22;24011;48.880;9.190;2023-02-07T08:53:55;24.10;37.50
37868;DHT22;24011;48.880;9.190;2023-02-07T08:56:24;24.10;38.20
37868;DHT22;24011;48.880;9.190;2023-02-07T08:58:53;24.10;37.70
37868;DHT22;24011;48.880;9.190;2023-02-07T09:01:24;24.10;37.70
37868;DHT22;24011;48.880;9.190;2023-02-07T09:03:54;24.10;37.80
37868;DHT22;24011;48.880;9.190;2023-02-07T09:06:24;24.10;37.70
37868;DHT22;24011;48.880;9.190;2023-02-07T09:08:55;24.10;37.70
37868;DHT22;24011;48.880;9.190;2023-02-07T09:11:25;24.10;37.60
37868;DHT22;24011;48.880;9.190;2023-02-07T09:13:54;24.10;37.60
37868;DHT22;24011;48.880;9.190;2023-02-07T09:17:05;24.10;37.60
37868;DHT22;24011;48.880;9.190;2023-02-07T09:20:09;24.10;37.60
37868;DHT22;24011;48.880;9.190;2023-02-07T09:26:43;24.10;37.70
37868;DHT22;24011;48.880;9.190;2023-02-07T09:29:15;24.10;37.70
37868;DHT22;24011;48.880;9.190;2023-02-07T09:31:47;24.10;37.60
37868;DHT22;24011;48.880;9.190;2023-02-07T09:34:18;24.20;37.60
37868;DHT22;24011;48.880;9.190;2023-02-07T09:36:48;24.10;37.60
37868;DHT22;24011;48.880;9.190;2023-02-07T09:39:20;24.20;37.50
37868;DHT22;24011;48.880;9.190;2023-02-07T09:41:58;24.20;37.50
37868;DHT22;24011;48.880;9.190;2023-02-07T09:48:46;24.20;37.60
37868;DHT22;24011;48.880;9.190;2023-02-07T09:51:19;24.20;37.50
37868;DHT22;24011;48.880;9.190;2023-02-07T09:53:53;24.20;37.40
37868;DHT22;24011;48.880;9.190;2023-02-07T10:16:45;24.30;36.30
37868;DHT22;24011;48.880;9.190;2023-02-07T10:19:25;24.30;36.20
37868;DHT22;24011;48.880;9.190;2023-02-07T10:22:00;24.30;36.10
37868;DHT22;24011;48.880;9.190;2023-02-07T10:24:49;24.30;36.00
37868;DHT22;24011;48.880;9.190;2023-02-07T10:27:26;24.30;36.00
37868;DHT22;24011;48.880;9.190;2023-02-07T10:37:52;24.40;35.60
37868;DHT22;24011;48.880;9.190;2023-02-07T10:40:25;24.40;35.60
37868;DHT22;24011;48.880;9.190;2023-02-07T10:42:59;24.40;35.50
37868;DHT22;24011;48.880;9.190;2023-02-07T10:45:29;24.40;35.30
37868;DHT22;24011;48.880;9.190;2023-02-07T10:48:01;24.40;35.30
37868;DHT22;24011;48.880;9.190;2023-02-07T10:50:30;24.40;35.10
37868;DHT22;24011;48.880;9.190;2023-02-07T10:53:03;24.40;35.10
37868;DHT22;24011;48.880;9.190;2023-02-07T10:55:40;24.40;34.80
37868;DHT22;24011;48.880;9.190;2023-02-07T10:58:15;24.40;34.70
37868;DHT22;24011;48.880;9.190;2023-02-07T11:00:51;24.40;34.80
37868;DHT22;24011;48.880;9.190;2023-02-07T11:03:21;24.50;34.60
37868;DHT22;24011;48.880;9.190;2023-02-07T11:05:57;24.50;34.40
37868;DHT22;24011;48.880;9.190;2023-02-07T11:08:31;24.40;34.40
37868;DHT22;24011;48.880;9.190;2023-02-07T11:11:26;24.40;34.50
37868;DHT22;24011;48.880;9.190;2023-02-07T11:14:02;24.40;34.50
37868;DHT22;24011;48.880;9.190;2023-02-07T11:16:34;24.40;34.70
37868;DHT22;24011;48.880;9.190;2023-02-07T11:19:05;24.40;34.80
37868;DHT22;24011;48.880;9.190;2023-02-07T11:21:39;24.50;35.10
37868;DHT22;24011;48.880;9.190;2023-02-07T11:24:16;24.50;35.20
37868;DHT22;24011;48.880;9.190;2023-02-07T11:26:55;24.50;35.40
37868;DHT22;24011;48.880;9.190;2023-02-07T11:29:25;24.50;35.50
37868;DHT22;24011;48.880;9.190;2023-02-07T11:31:57;24.50;35.70
37868;DHT22;24011;48.880;9.190;2023-02-07T11:34:38;24.50;35.50
37868;DHT22;24011;48.880;9.190;2023-02-07T11:37:21;24.50;35.70
37868;DHT22;24011;48.880;9.190;2023-02-07T11:39:52;24.50;35.80
37868;DHT22;24011;48.880;9.190;2023-02-07T11:42:24;24.60;35.90
37868;DHT22;24011;48.880;9.190;2023-02-07T11:44:53;24.60;35.90
37868;DHT22;24011;48.880;9.190;2023-02-07T11:47:24;24.60;35.80
37868;DHT22;24011;48.880;9.190;2023-02-07T11:49:57;24.60;35.60
37868;DHT22;24011;48.880;9.190;2023-02-07T11:52:27;24.60;35.50
37868;DHT22;24011;48.880;9.190;2023-02-07T11:55:05;24.60;35.40
37868;DHT22;24011;48.880;9.190;2023-02-07T11:57:35;24.60;35.30
37868;DHT22;24011;48.880;9.190;2023-02-07T12:00:07;24.60;35.20
37868;DHT22;24011;48.880;9.190;2023-02-07T12:02:57;24.60;35.10
37868;DHT22;24011;48.880;9.190;2023-02-07T12:05:32;24.60;34.90
37868;DHT22;24011;48.880;9.190;2023-02-07T12:08:08;24.60;34.80
37868;DHT22;24011;48.880;9.190;2023-02-07T12:10:46;24.60;34.60
37868;DHT22;24011;48.880;9.190;2023-02-07T12:13:19;24.60;34.60
37868;DHT22;24011;48.880;9.190;2023-02-07T12:15:53;24.60;34.50
37868;DHT22;24011;48.880;9.190;2023-02-07T12:18:28;24.60;34.30
37868;DHT22;24011;48.880;9.190;2023-02-07T12:21:03;24.60;34.30
37868;DHT22;24011;48.880;9.190;2023-02-07T12:23:39;24.60;34.20
37868;DHT22;24011;48.880;9.190;2023-02-07T12:26:19;24.60;34.10
37868;DHT22;24011;48.880;9.190;2023-02-07T12:29:05;24.60;33.90
37868;DHT22;24011;48.880;9.190;2023-02-07T12:31:48;24.60;34.00
37868;DHT22;24011;48.880;9.190;2023-02-07T12:34:56;24.60;34.00
37868;DHT22;24011;48.880;9.190;2023-02-07T12:38:55;24.60;34.10
37868;DHT22;24011;48.880;9.190;2023-02-07T13:45:18;24.90;36.20
37868;DHT22;24011;48.880;9.190;2023-02-07T13:48:16;24.90;36.10
37868;DHT22;24011;48.880;9.190;2023-02-07T13:50:57;24.90;36.10
37868;DHT22;24011;48.880;9.190;2023-02-07T13:53:37;24.90;36.10
37868;DHT22;24011;48.880;9.190;2023-02-07T13:56:09;24.90;36.10
37868;DHT22;24011;48.880;9.190;2023-02-07T13:58:59;24.90;36.20
37868;DHT22;24011;48.880;9.190;2023-02-07T14:01:52;24.90;36.20
37868;DHT22;24011;48.880;9.190;2023-02-07T14:04:23;25.00;35.90
37868;DHT22;24011;48.880;9.190;2023-02-07T14:07:01;25.00;35.90
37868;DHT22;24011;48.880;9.190;2023-02-07T14:09:38;24.90;36.00
37868;DHT22;24011;48.880;9.190;2023-02-07T14:12:17;24.90;36.10
37868;DHT22;24011;48.880;9.190;2023-02-07T14:14:48;24.90;36.20
37868;DHT22;24011;48.880;9.190;2023-02-07T14:17:56;24.90;36.30
37868;DHT22;24011;48.880;9.190;2023-02-07T14:20:56;24.90;36.10
37868;DHT22;24011;48.880;9.190;2023-02-07T14:23:48;25.00;36.10
37868;DHT22;24011;48.880;9.190;2023-02-07T14:32:27;24.90;36.10
37868;DHT22;24011;48.880;9.190;2023-02-07T14:37:58;24.90;35.90
37868;DHT22;24011;48.880;9.190;2023-02-07T14:40:33;25.00;36.00
37868;DHT22;24011;48.880;9.190;2023-02-07T14:43:06;25.00;35.90
37868;DHT22;24011;48.880;9.190;2023-02-07T14:46:02;25.00;35.80
37868;DHT22;24011;48.880;9.190;2023-02-07T14:48:41;25.10;35.80
37868;DHT22;24011;48.880;9.190;2023-02-07T14:51:14;25.10;35.70
37868;DHT22;24011;48.880;9.190;2023-02-07T14:53:54;25.00;35.70
37868;DHT22;24011;48.880;9.190;2023-02-07T14:56:39;25.00;35.70
37868;DHT22;24011;48.880;9.190;2023-02-07T14:59:15;25.00;35.70
37868;DHT22;24011;48.880;9.190;2023-02-07T15:01:44;25.00;35.60
37868;DHT22;24011;48.880;9.190;2023-02-07T15:04:14;25.00;35.60
37868;DHT22;24011;48.880;9.190;2023-02-07T15:06:47;25.00;35.60
37868;DHT22;24011;48.880;9.190;2023-02-07T15:09:23;25.00;35.60
37868;DHT22;24011;48.880;9.190;2023-02-07T15:11:53;25.00;35.50
37868;DHT22;24011;48.880;9.190;2023-02-07T15:14:45;25.00;35.50
37868;DHT22;24011;48.880;9.190;2023-02-07T15:17:19;25.00;35.60
37868;DHT22;24011;48.880;9.190;2023-02-07T15:19:49;25.00;35.60
37868;DHT22;24011;48.880;9.190;2023-02-07T15:22:26;25.00;35.50
37868;DHT22;24011;48.880;9.190;2023-02-07T15:24:57;25.00;35.60
37868;DHT22;24011;48.880;9.190;2023-02-07T15:27:28;25.00;35.60
37868;DHT22;24011;48.880;9.190;2023-02-07T15:29:58;24.90;35.70
37868;DHT22;24011;48.880;9.190;2023-02-07T15:32:30;24.90;35.60
37868;DHT22;24011;48.880;9.190;2023-02-07T15:35:12;25.00;35.60
37868;DHT22;24011;48.880;9.190;2023-02-07T15:37:46;25.00;35.50
37868;DHT22;24011;48.880;9.190;2023-02-07T15:40:17;24.90;35.50
37868;DHT22;24011;48.880;9.190;2023-02-07T15:42:50;24.90;35.50
37868;DHT22;24011;48.880;9.190;2023-02-07T15:45:24;24.90;35.50
37868;DHT22;24011;48.880;9.190;2023-02-07T15:47:58;24.90;35.50
37868;DHT22;24011;48.880;9.190;2023-02-07T15:50:29;24.90;35.50
37868;DHT22;24011;48.880;9.190;2023-02-07T15:53:04;24.90;35.50
37868;DHT22;24011;48.880;9.190;2023-02-07T15:55:41;24.80;35.50
37868;DHT22;24011;48.880;9.190;2023-02-07T15:58:20;24.90;35.40
37868;DHT22;24011;48.880;9.190;2023-02-07T16:00:51;24.80;35.40
37868;DHT22;24011;48.880;9.190;2023-02-07T16:03:22;24.80;35.30
37868;DHT22;24011;48.880;9.190;2023-02-07T16:06:01;24.80;35.50
37868;DHT22;24011;48.880;9.190;2023-02-07T16:08:36;24.70;35.50
37868;DHT22;24011;48.880;9.190;2023-02-07T16:11:13;24.70;35.50
37868;DHT22;24011;48.880;9.190;2023-02-07T16:13:44;24.70;35.60
37868;DHT22;24011;48.880;9.190;2023-02-07T16:16:23;24.80;35.60
37868;DHT22;24011;48.880;9.190;2023-02-07T16:19:04;24.70;35.50
37868;DHT22;24011;48.880;9.190;2023-02-07T16:21:34;24.70;35.50
37868;DHT22;24011;48.880;9.190;2023-02-07T16:24:07;24.70;35.40
37868;DHT22;24011;48.880;9.190;2023-02-07T16:26:37;24.70;35.40
37868;DHT22;24011;48.880;9.190;2023-02-07T16:29:09;24.70;35.50
37868;DHT22;24011;48.880;9.190;2023-02-07T16:31:39;24.70;35.50
37868;DHT22;24011;48.880;9.190;2023-02-07T16:34:10;24.70;35.40
37868;DHT22;24011;48.880;9.190;2023-02-07T16:36:40;24.70;35.40
37868;DHT22;24011;48.880;9.190;2023-02-07T16:39:11;24.60;35.40
37868;DHT22;24011;48.880;9.190;2023-02-07T16:41:43;24.60;35.30
37868;DHT22;24011;48.880;9.190;2023-02-07T16:44:16;24.60;35.40
37868;DHT22;24011;48.880;9.190;2023-02-07T16:46:45;24.60;35.40
37868;DHT22;24011;48.880;9.190;2023-02-07T16:49:16;24.60;35.40
37868;DHT22;24011;48.880;9.190;2023-02-07T16:51:45;24.60;35.50
37868;DHT22;24011;48.880;9.190;2023-02-07T16:54:16;24.50;35.40
37868;DHT22;24011;48.880;9.190;2023-02-07T16:56:46;24.50;35.40
37868;DHT22;24011;48.880;9.190;2023-02-07T16:59:18;24.50;35.50
37868;DHT22;24011;48.880;9.190;2023-02-07T17:01:50;24.50;35.50
37868;DHT22;24011;48.880;9.190;2023-02-07T17:04:20;24.50;35.40
37868;DHT22;24011;48.880;9.190;2023-02-07T17:06:51;24.50;36.10
37868;DHT22;24011;48.880;9.190;2023-02-07T17:09:23;24.50;35.40
37868;DHT22;24011;48.880;9.190;2023-02-07T17:11:56;24.50;35.50
37868;DHT22;24011;48.880;9.190;2023-02-07T17:14:25;24.50;35.50
37868;DHT22;24011;48.880;9.190;2023-02-07T17:16:55;24.50;35.40
37868;DHT22;24011;48.880;9.190;2023-02-07T17:19:27;24.40;35.40
37868;DHT22;24011;48.880;9.190;2023-02-07T17:21:56;24.40;35.50
37868;DHT22;24011;48.880;9.190;2023-02-07T17:24:27;24.40;35.50
37868;DHT22;24011;48.880;9.190;2023-02-07T17:26:57;24.40;35.50
37868;DHT22;24011;48.880;9.190;2023-02-07T17:29:27;24.40;35.50
37868;DHT22;24011;48.880;9.190;2023-02-07T17:31:56;24.40;35.60
37868;DHT22;24011;48.880;9.190;2023-02-07T17:34:26;24.40;35.50
37868;DHT22;24011;48.880;9.190;2023-02-07T17:36:57;24.40;35.50
37868;DHT22;24011;48.880;9.190;2023-02-07T17:39:28;24.40;35.50
37868;DHT22;24011;48.880;9.190;2023-02-07T17:41:57;24.40;35.60
37868;DHT22;24011;48.880;9.190;2023-02-07T17:44:28;24.40;35.60
37868;DHT22;24011;48.880;9.190;2023-02-07T17:47:00;24.40;35.60
37868;DHT22;24011;48.880;9.190;2023-02-07T17:49:29;24.40;35.60
37868;DHT22;24011;48.880;9.190;2023-02-07T17:51:59;24.30;35.50
37868;DHT22;24011;48.880;9.190;2023-02-07T17:54:30;24.40;35.60
37868;DHT22;24011;48.880;9.190;2023-02-07T17:57:00;24.30;35.50
37868;DHT22;24011;48.880;9.190;2023-02-07T17:59:29;24.30;35.60
37868;DHT22;24011;48.880;9.190;2023-02-07T18:01:59;24.30;35.60
37868;DHT22;24011;48.880;9.190;2023-02-07T18:04:30;24.30;35.60
37868;DHT22;24011;48.880;9.190;2023-02-07T18:06:59;24.30;35.60
37868;DHT22;24011;48.880;9.190;2023-02-07T18:09:32;24.30;35.60
37868;DHT22;24011;48.880;9.190;2023-02-07T18:12:02;24.30;35.60
37868;DHT22;24011;48.880;9.190;2023-02-07T18:14:32;24.30;35.70
37868;DHT22;24011;48.880;9.190;2023-02-07T18:17:01;24.30;35.60
37868;DHT22;24011;48.880;9.190;2023-02-07T18:19:30;24.30;35.60
37868;DHT22;24011;48.880;9.190;2023-02-07T18:21:59;24.20;35.60
37868;DHT22;24011;48.880;9.190;2023-02-07T18:24:28;24.20;35.50
37868;DHT22;24011;48.880;9.190;2023-02-07T18:26:59;24.20;35.50
37868;DHT22;24011;48.880;9.190;2023-02-07T18:29:28;24.20;35.50
37868;DHT22;24011;48.880;9.190;2023-02-07T18:31:56;24.20;35.50
37868;DHT22;24011;48.880;9.190;2023-02-07T18:34:28;24.20;36.20
37868;DHT22;24011;48.880;9.190;2023-02-07T18:36:56;24.20;35.50
37868;DHT22;24011;48.880;9.190;2023-02-07T18:39:25;24.20;35.60
37868;DHT22;24011;48.880;9.190;2023-02-07T18:41:54;24.10;35.50
37868;DHT22;24011;48.880;9.190;2023-02-07T18:44:24;24.10;35.60
37868;DHT22;24011;48.880;9.190;2023-02-07T18:46:53;24.20;35.60
37868;DHT22;24011;48.880;9.190;2023-02-07T18:49:23;24.10;35.70
37868;DHT22;24011;48.880;9.190;2023-02-07T18:51:54;24.10;35.70
37868;DHT22;24011;48.880;9.190;2023-02-07T18:54:23;24.10;35.70
37868;DHT22;24011;48.880;9.190;2023-02-07T18:56:52;24.10;35.70
37868;DHT22;24011;48.880;9.190;2023-02-07T18:59:22;24.10;35.80
37868;DHT22;24011;48.880;9.190;2023-02-07T19:01:53;24.10;35.80
37868;DHT22;24011;48.880;9.190;2023-02-07T19:04:22;24.10;35.70
37868;DHT22;24011;48.880;9.190;2023-02-07T19:06:52;24.10;35.70
37868;DHT22;24011;48.880;9.190;2023-02-07T19:09:22;24.10;35.70
37868;DHT22;24011;48.880;9.190;2023-02-07T19:11:52;24.10;35.60
37868;DHT22;24011;48.880;9.190;2023-02-07T19:14:24;24.20;35.60
37868;DHT22;24011;48.880;9.190;2023-02-07T19:16:55;24.20;35.60
37868;DHT22;24011;48.880;9.190;2023-02-07T19:19:26;24.20;35.60
37868;DHT22;24011;48.880;9.190;2023-02-07T19:21:56;24.20;35.90
37868;DHT22;24011;48.880;9.190;2023-02-07T19:24:26;24.20;35.50
37868;DHT22;24011;48.880;9.190;2023-02-07T19:26:57;24.20;35.60
37868;DHT22;24011;48.880;9.190;2023-02-07T19:29:27;24.20;35.50
37868;DHT22;24011;48.880;9.190;2023-02-07T19:32:00;24.20;35.50
37868;DHT22;24011;48.880;9.190;2023-02-07T19:34:30;24.20;35.50
37868;DHT22;24011;48.880;9.190;2023-02-07T19:36:59;24.20;35.40
37868;DHT22;24011;48.880;9.190;2023-02-07T19:39:29;24.30;35.50
37868;DHT22;24011;48.880;9.190;2023-02-07T19:41:58;24.20;35.50
37868;DHT22;24011;48.880;9.190;2023-02-07T19:44:28;24.20;35.50
37868;DHT22;24011;48.880;9.190;2023-02-07T19:46:58;24.20;35.50
37868;DHT22;24011;48.880;9.190;2023-02-07T19:49:28;24.30;35.60
37868;DHT22;24011;48.880;9.190;2023-02-07T19:51:57;24.20;35.50
37868;DHT22;24011;48.880;9.190;2023-02-07T19:54:26;24.20;35.50
37868;DHT22;24011;48.880;9.190;2023-02-07T19:56:55;24.20;35.50
37868;DHT22;24011;48.880;9.190;2023-02-07T19:59:24;24.20;36.20
37868;DHT22;24011;48.880;9.190;2023-02-07T20:01:53;24.20;35.50
37868;DHT22;24011;48.880;9.190;2023-02-07T20:04:24;24.20;35.50
37868;DHT22;24011;48.880;9.190;2023-02-07T20:06:53;24.20;35.50
37868;DHT22;24011;48.880;9.190;2023-02-07T20:09:22;24.20;35.60
37868;DHT22;24011;48.880;9.190;2023-02-07T20:11:51;24.20;35.60
37868;DHT22;24011;48.880;9.190;2023-02-07T20:14:21;24.20;35.60
37868;DHT22;24011;48.880;9.190;2023-02-07T20:16:50;24.20;35.60
37868;DHT22;24011;48.880;9.190;2023-02-07T20:19:19;24.20;35.60
37868;DHT22;24011;48.880;9.190;2023-02-07T20:21:50;24.20;35.50
37868;DHT22;24011;48.880;9.190;2023-02-07T20:24:19;24.20;35.60
37868;DHT22;24011;48.880;9.190;2023-02-07T20:26:48;24.20;35.60
37868;DHT22;24011;48.880;9.190;2023-02-07T20:29:18;24.20;35.60
37868;DHT22;24011;48.880;9.190;2023-02-07T20:31:49;24.20;35.60
37868;DHT22;24011;48.880;9.190;2023-02-07T20:34:19;24.20;35.60
37868;DHT22;24011;48.880;9.190;2023-02-07T20:36:49;24.20;35.60
37868;DHT22;24011;48.880;9.190;2023-02-07T20:39:20;24.20;35.60
37868;DHT22;24011;48.880;9.190;2023-02-07T20:41:49;24.20;35.70
37868;DHT22;24011;48.880;9.190;2023-02-07T20:44:19;24.20;35.60
37868;DHT22;24011;48.880;9.190;2023-02-07T20:46:49;24.20;35.60
37868;DHT22;24011;48.880;9.190;2023-02-07T20:49:21;24.20;35.60
37868;DHT22;24011;48.880;9.190;2023-02-07T20:51:55;24.20;35.60
37868;DHT22;24011;48.880;9.190;2023-02-07T20:54:27;24.20;35.60
37868;DHT22;24011;48.880;9.190;2023-02-07T20:56:57;24.20;35.60
37868;DHT22;24011;48.880;9.190;2023-02-07T20:59:30;24.20;35.60
37868;DHT22;24011;48.880;9.190;2023-02-07T21:02:01;24.20;35.60
37868;DHT22;24011;48.880;9.190;2023-02-07T21:04:30;24.20;35.60
37868;DHT22;24011;48.880;9.190;2023-02-07T21:07:03;24.20;35.60
37868;DHT22;24011;48.880;9.190;2023-02-07T21:09:33;24.20;35.70
37868;DHT22;24011;48.880;9.190;2023-02-07T21:12:03;24.20;35.60
37868;DHT22;24011;48.880;9.190;2023-02-07T21:14:33;24.20;35.60
37868;DHT22;24011;48.880;9.190;2023-02-07T21:17:04;24.20;35.60
37868;DHT22;24011;48.880;9.190;2023-02-07T21:19:35;24.20;35.60
37868;DHT22;24011;48.880;9.190;2023-02-07T21:22:06;24.20;35.60
37868;DHT22;24011;48.880;9.190;2023-02-07T21:24:38;24.20;35.70
37868;DHT22;24011;48.880;9.190;2023-02-07T21:27:09;24.20;35.60
37868;DHT22;24011;48.880;9.190;2023-02-07T21:29:38;24.20;35.60
37868;DHT22;24011;48.880;9.190;2023-02-07T21:32:08;24.20;35.60
37868;DHT22;24011;48.880;9.190;2023-02-07T21:34:39;24.20;35.60
37868;DHT22;24011;48.880;9.190;2023-02-07T21:37:10;24.20;35.60
37868;DHT22;24011;48.880;9.190;2023-02-07T21:39:39;24.20;35.60
37868;DHT22;24011;48.880;9.190;2023-02-07T21:42:08;24.20;35.60
37868;DHT22;24011;48.880;9.190;2023-02-07T21:44:39;24.20;35.60
37868;DHT22;24011;48.880;9.190;2023-02-07T21:47:08;24.20;35.70
37868;DHT22;24011;48.880;9.190;2023-02-07T21:49:38;24.20;35.60
37868;DHT22;24011;48.880;9.190;2023-02-07T21:52:07;24.20;35.60
37868;DHT22;24011;48.880;9.190;2023-02-07T21:54:38;24.20;35.60
37868;DHT22;24011;48.880;9.190;2023-02-07T21:57:08;24.20;35.60
37868;DHT22;24011;48.880;9.190;2023-02-07T21:59:37;24.20;35.80
37868;DHT22;24011;48.880;9.190;2023-02-07T22:02:09;24.20;35.70
37868;DHT22;24011;48.880;9.190;2023-02-07T22:04:39;24.20;35.70
37868;DHT22;24011;48.880;9.190;2023-02-07T22:07:09;24.10;35.60
37868;DHT22;24011;48.880;9.190;2023-02-07T22:09:40;24.20;35.70
37868;DHT22;24011;48.880;9.190;2023-02-07T22:12:09;24.10;35.70
37868;DHT22;24011;48.880;9.190;2023-02-07T22:14:38;24.10;35.70
37868;DHT22;24011;48.880;9.190;2023-02-07T22:17:11;24.20;35.70
37868;DHT22;24011;48.880;9.190;2023-02-07T22:19:43;24.20;35.60
37868;DHT22;24011;48.880;9.190;2023-02-07T22:22:12;24.20;35.70
37868;DHT22;24011;48.880;9.190;2023-02-07T22:24:48;24.10;35.60
37868;DHT22;24011;48.880;9.190;2023-02-07T22:27:17;24.10;35.60
37868;DHT22;24011;48.880;9.190;2023-02-07T22:29:46;24.20;35.70
37868;DHT22;24011;48.880;9.190;2023-02-07T22:32:15;24.10;35.70
37868;DHT22;24011;48.880;9.190;2023-02-07T22:34:46;24.10;35.70
37868;DHT22;24011;48.880;9.190;2023-02-07T22:37:15;24.10;35.70
37868;DHT22;24011;48.880;9.190;2023-02-07T22:39:47;24.10;35.70
37868;DHT22;24011;48.880;9.190;2023-02-07T22:42:16;24.10;35.70
37868;DHT22;24011;48.880;9.190;2023-02-07T22:44:48;24.10;35.70
37868;DHT22;24011;48.880;9.190;2023-02-07T22:47:17;24.10;35.70
37868;DHT22;24011;48.880;9.190;2023-02-07T22:49:46;24.10;35.70
37868;DHT22;24011;48.880;9.190;2023-02-07T22:52:16;24.10;35.70
37868;DHT22;24011;48.880;9.190;2023-02-07T22:54:47;24.10;35.70
37868;DHT22;24011;48.880;9.190;2023-02-07T22:57:18;24.10;36.00
37868;DHT22;24011;48.880;9.190;2023-02-07T22:59:47;24.10;35.80
37868;DHT22;24011;48.880;9.190;2023-02-07T23:02:16;24.10;35.80
37868;DHT22;24011;48.880;9.190;2023-02-07T23:04:45;24.10;35.70
37868;DHT22;24011;48.880;9.190;2023-02-07T23:07:14;24.10;35.80
37868;DHT22;24011;48.880;9.190;2023-02-07T23:09:47;24.10;36.20
37868;DHT22;24011;48.880;9.190;2023-02-07T23:12:17;24.10;35.80
37868;DHT22;24011;48.880;9.190;2023-02-07T23:14:47;24.10;35.80
37868;DHT22;24011;48.880;9.190;2023-02-07T23:17:17;24.10;35.80
37868;DHT22;24011;48.880;9.190;2023-02-07T23:19:49;24.10;35.80
37868;DHT22;24011;48.880;9.190;2023-02-07T23:22:19;24.10;35.80
37868;DHT22;24011;48.880;9.190;2023-02-07T23:24:49;24.10;35.80
37868;DHT22;24011;48.880;9.190;2023-02-07T23:27:18;24.10;35.80
37868;DHT22;24011;48.880;9.190;2023-02-07T23:29:48;24.00;35.80
37868;DHT22;24011;48.880;9.190;2023-02-07T23:32:17;24.00;35.80
37868;DHT22;24011;48.880;9.190;2023-02-07T23:34:49;24.10;35.80
37868;DHT22;24011;48.880;9.190;2023-02-07T23:37:18;24.00;35.80
37868;DHT22;24011;48.880;9.190;2023-02-07T23:39:50;24.00;35.80
37868;DHT22;24011;48.880;9.190;2023-02-07T23:42:19;24.00;35.80
37868;DHT22;24011;48.880;9.190;2023-02-07T23:44:49;24.00;35.80
37868;DHT22;24011;48.880;9.190;2023-02-07T23:47:18;24.00;35.80
37868;DHT22;24011;48.880;9.190;2023-02-07T23:49:50;24.00;35.80
37868;DHT22;24011;48.880;9.190;2023-02-07T23:52:19;24.00;35.80
37868;DHT22;24011;48.880;9.190;2023-02-07T23:54:49;24.00;35.80
37868;DHT22;24011;48.880;9.190;2023-02-07T23:57:21;24.00;35.80
37868;DHT22;24011;48.880;9.190;2023-02-07T23:59:52;24.00;35.80
